Time;durP1;ratioP1;P1;durP2;ratioP2;P2;SDS_P1;SDS_P2;PMS_P1;PMS_P2;Temp;Humidity;BMP_temperature;BMP_pressure;BME280_temperature;BME280_humidity;BME280_pressure;Samples;Min_cycle;Max_cycle;Signal;HPM_P1;HPM_P2
2021/11/14 00:01:00;;;;;;;20.60;12.10;;;9.40;99.90;;;;;;5046921;28;20247;-71
2021/11/14 00:03:28;;;;;;;19.90;11.03;;;9.30;99.90;;;;;;5048056;28;20259;-71
2021/11/14 00:05:56;;;;;;;19.30;10.87;;;9.40;99.90;;;;;;5047891;28;20260;-71
2021/11/14 00:08:23;;;;;;;26.47;13.90;;;9.40;99.90;;;;;;5047198;28;20216;-71
2021/11/14 00:10:53;;;;;;;22.60;12.50;;;9.40;99.90;;;;;;5047865;28;20209;-71
2021/11/14 00:13:22;;;;;;;31.60;16.63;;;9.40;99.90;;;;;;5047487;28;20695;-71
2021/11/14 00:15:50;;;;;;;26.03;14.70;;;9.40;99.90;;;;;;5048312;28;20213;-71
2021/11/14 00:18:20;;;;;;;32.50;17.23;;;9.30;99.90;;;;;;5047683;28;20594;-71
2021/11/14 00:20:48;;;;;;;35.77;19.80;;;9.30;99.90;;;;;;5048438;28;20586;-71
2021/11/14 00:23:16;;;;;;;33.00;17.43;;;9.30;99.90;;;;;;5048857;28;20200;-71
2021/11/14 00:25:43;;;;;;;27.60;15.77;;;9.20;99.90;;;;;;5046711;28;20208;-71
2021/11/14 00:28:10;;;;;;;27.30;14.23;;;9.20;99.90;;;;;;5047975;28;20291;-71
2021/11/14 00:30:47;;;;;;;28.47;15.27;;;9.20;99.90;;;;;;5046638;28;20216;-71
2021/11/14 00:33:16;;;;;;;32.30;18.20;;;9.20;99.90;;;;;;5047401;28;20212;-71
2021/11/14 00:35:43;;;;;;;32.23;17.63;;;9.10;99.90;;;;;;5048191;28;20543;-71
2021/11/14 00:38:11;;;;;;;33.53;17.03;;;9.10;99.90;;;;;;5054488;28;20331;-71
2021/11/14 00:40:40;;;;;;;28.20;15.87;;;9.10;99.90;;;;;;5048175;28;20190;-71
2021/11/14 00:43:08;;;;;;;32.80;17.83;;;9.10;99.90;;;;;;5047484;28;20296;-71
2021/11/14 00:45:37;;;;;;;29.80;16.87;;;9.10;99.90;;;;;;5047606;28;20189;-71
2021/11/14 00:48:05;;;;;;;33.13;17.20;;;9.10;99.90;;;;;;5048179;28;20711;-71
2021/11/14 00:50:34;;;;;;;34.40;17.80;;;9.10;99.90;;;;;;5047691;28;20197;-71
2021/11/14 00:53:01;;;;;;;31.20;16.17;;;9.00;99.90;;;;;;5047209;28;20242;-71
2021/11/14 00:55:31;;;;;;;24.10;13.67;;;9.00;99.90;;;;;;5045907;28;20241;-71
2021/11/14 00:57:59;;;;;;;23.57;13.47;;;9.00;99.90;;;;;;5047879;28;20224;-71
2021/11/14 01:00:27;;;;;;;20.33;11.83;;;9.00;99.90;;;;;;5046433;28;20296;-71
2021/11/14 01:02:55;;;;;;;27.40;14.60;;;9.10;99.90;;;;;;5046831;28;20226;-70
2021/11/14 01:05:24;;;;;;;31.47;16.13;;;9.10;99.90;;;;;;5045722;28;20194;-71
2021/11/14 01:07:52;;;;;;;29.80;16.63;;;9.10;99.90;;;;;;5048573;28;20621;-71
2021/11/14 01:10:23;;;;;;;34.33;18.97;;;9.10;99.90;;;;;;5046155;28;20227;-71
2021/11/14 01:12:51;;;;;;;28.27;15.27;;;9.10;99.90;;;;;;5048480;28;20286;-71
2021/11/14 01:15:19;;;;;;;27.37;14.70;;;9.10;99.90;;;;;;5045445;28;20695;-71
2021/11/14 01:17:46;;;;;;;29.70;15.67;;;9.10;99.90;;;;;;5052934;28;20258;-70
2021/11/14 01:20:16;;;;;;;24.60;14.10;;;9.10;99.90;;;;;;5046814;28;20272;-70
2021/11/14 01:22:46;;;;;;;28.50;15.07;;;9.00;99.90;;;;;;5050777;28;20296;-70
2021/11/14 01:25:14;;;;;;;32.80;17.23;;;9.00;99.90;;;;;;5050180;28;20248;-70
2021/11/14 01:27:42;;;;;;;30.03;15.83;;;9.10;99.90;;;;;;5053105;28;20191;-70
2021/11/14 01:30:12;;;;;;;32.83;16.93;;;9.00;99.90;;;;;;5049159;28;20207;-69
2021/11/14 01:32:40;;;;;;;27.73;15.37;;;9.00;99.90;;;;;;5050319;28;20678;-69
2021/11/14 01:35:09;;;;;;;31.37;17.10;;;9.00;99.90;;;;;;5049743;28;20213;-69
2021/11/14 01:37:36;;;;;;;29.83;15.77;;;9.00;99.90;;;;;;5051279;28;20249;-69
2021/11/14 01:40:06;;;;;;;25.93;13.37;;;9.00;99.90;;;;;;5051083;28;20230;-71
2021/11/14 01:42:33;;;;;;;28.30;15.40;;;9.00;99.90;;;;;;5049925;28;20289;-71
2021/11/14 01:45:00;;;;;;;27.23;14.67;;;9.00;99.90;;;;;;5051058;28;20357;-70
2021/11/14 01:47:27;;;;;;;28.27;16.33;;;9.00;99.90;;;;;;5052088;28;20195;-70
2021/11/14 01:49:54;;;;;;;28.73;14.87;;;9.00;99.90;;;;;;5050246;28;20681;-70
2021/11/14 01:52:23;;;;;;;31.70;17.20;;;9.00;99.90;;;;;;5051865;28;20229;-71
2021/11/14 01:54:50;;;;;;;28.17;15.80;;;9.00;99.90;;;;;;5051710;28;20233;-70
2021/11/14 01:57:19;;;;;;;26.60;14.73;;;9.00;99.90;;;;;;5050085;28;20290;-70
2021/11/14 01:59:46;;;;;;;25.77;13.10;;;9.00;99.90;;;;;;5049836;28;20201;-71
2021/11/14 02:02:13;;;;;;;19.77;11.70;;;9.00;99.90;;;;;;5063708;28;20209;-71
2021/11/14 02:04:42;;;;;;;22.30;13.10;;;9.00;99.90;;;;;;5049474;28;20257;-71
2021/11/14 02:07:10;;;;;;;19.87;11.70;;;9.00;99.90;;;;;;5050217;28;20202;-71
2021/11/14 02:09:38;;;;;;;19.77;11.83;;;9.10;99.90;;;;;;5059861;28;20241;-71
2021/11/14 02:12:06;;;;;;;19.90;12.00;;;9.10;99.90;;;;;;5050796;28;20190;-70
2021/11/14 02:14:35;;;;;;;17.87;10.07;;;9.10;99.90;;;;;;5048811;28;20296;-71
2021/11/14 02:17:04;;;;;;;17.37;9.63;;;9.10;99.90;;;;;;5050004;28;20207;-70
2021/11/14 02:19:31;;;;;;;12.60;8.50;;;9.20;99.90;;;;;;5049265;28;20202;-70
2021/11/14 02:21:59;;;;;;;17.27;10.20;;;9.20;99.90;;;;;;5049512;28;20247;-70
2021/11/14 02:24:26;;;;;;;15.97;9.07;;;9.20;99.90;;;;;;5050766;28;20195;-71
2021/11/14 02:26:54;;;;;;;15.13;9.33;;;9.20;99.90;;;;;;5050225;28;20198;-71
2021/11/14 02:29:21;;;;;;;14.37;8.70;;;9.30;99.90;;;;;;5049083;28;20684;-71
2021/11/14 02:31:50;;;;;;;12.33;8.40;;;9.30;99.90;;;;;;5050502;28;20225;-71
2021/11/14 02:34:17;;;;;;;15.03;8.63;;;9.30;99.90;;;;;;5049800;28;20209;-70
2021/11/14 02:36:44;;;;;;;16.10;9.63;;;9.30;99.90;;;;;;5050610;28;20309;-71
2021/11/14 02:39:12;;;;;;;13.20;8.47;;;9.30;99.90;;;;;;5049789;28;20235;-71
2021/11/14 02:41:39;;;;;;;13.03;7.43;;;9.30;99.90;;;;;;5050452;28;20189;-71
2021/11/14 02:44:06;;;;;;;11.53;7.23;;;9.30;99.90;;;;;;5056104;28;20652;-71
2021/11/14 02:46:34;;;;;;;13.70;8.20;;;9.40;99.90;;;;;;5050411;28;20197;-71
2021/11/14 02:49:01;;;;;;;10.60;7.20;;;9.40;99.90;;;;;;5049126;28;20206;-70
2021/11/14 02:51:31;;;;;;;9.53;6.47;;;9.40;99.90;;;;;;5049494;28;20204;-70
2021/11/14 02:54:00;;;;;;;9.53;6.33;;;9.40;99.90;;;;;;5048823;28;20300;-70
2021/11/14 02:56:29;;;;;;;9.60;6.07;;;9.40;99.90;;;;;;5049616;28;20237;-70
2021/11/14 02:58:57;;;;;;;9.30;6.10;;;9.50;99.90;;;;;;5048572;28;20240;-70
2021/11/14 03:01:27;;;;;;;9.43;6.23;;;9.50;99.90;;;;;;5050478;28;20577;-70
2021/11/14 03:03:55;;;;;;;9.37;6.10;;;9.50;99.90;;;;;;5049545;28;20198;-70
2021/11/14 03:06:23;;;;;;;12.27;7.53;;;9.50;99.90;;;;;;5048772;28;20210;-70
2021/11/14 03:08:51;;;;;;;12.17;7.37;;;9.50;99.90;;;;;;5049065;28;20559;-70
2021/11/14 03:11:18;;;;;;;14.00;8.33;;;9.50;99.90;;;;;;5048885;28;20575;-70
2021/11/14 03:13:47;;;;;;;14.80;8.63;;;9.50;99.90;;;;;;5047877;28;20219;-71
2021/11/14 03:16:21;;;;;;;13.03;8.10;;;9.40;99.90;;;;;;5048783;28;20202;-71
2021/11/14 03:18:48;;;;;;;27.67;14.83;;;9.50;99.90;;;;;;5048840;28;20283;-71
2021/11/14 03:21:15;;;;;;;23.03;13.17;;;9.50;99.90;;;;;;5048581;28;20662;-71
2021/11/14 03:23:42;;;;;;;22.50;11.80;;;9.40;99.90;;;;;;5048406;28;20215;-71
2021/11/14 03:26:10;;;;;;;18.30;10.50;;;9.40;99.90;;;;;;5049247;28;20618;-71
2021/11/14 03:28:37;;;;;;;19.97;9.93;;;9.40;99.90;;;;;;5047523;28;20193;-71
2021/11/14 03:31:06;;;;;;;20.23;11.77;;;9.50;99.90;;;;;;5050216;28;20199;-71
2021/11/14 03:33:33;;;;;;;26.63;13.47;;;9.50;99.90;;;;;;5049071;28;20251;-71
2021/11/14 03:36:04;;;;;;;16.87;10.67;;;9.50;99.90;;;;;;5047971;28;20280;-71
2021/11/14 03:38:34;;;;;;;15.43;9.57;;;9.50;99.90;;;;;;5048693;28;20234;-71
2021/11/14 03:41:02;;;;;;;14.03;8.33;;;9.50;99.90;;;;;;5055359;28;20674;-71
2021/11/14 03:43:31;;;;;;;19.00;11.03;;;9.50;99.90;;;;;;5048854;28;20251;-71
2021/11/14 03:45:58;;;;;;;19.23;11.00;;;9.50;99.90;;;;;;5047936;28;20219;-71
2021/11/14 03:48:27;;;;;;;22.57;13.20;;;9.50;99.90;;;;;;5049184;28;20198;-71
2021/11/14 03:50:55;;;;;;;21.23;12.57;;;9.50;99.90;;;;;;5057121;28;20210;-71
2021/11/14 03:53:23;;;;;;;18.93;11.00;;;9.50;99.90;;;;;;5048583;28;20197;-71
2021/11/14 03:55:52;;;;;;;16.37;9.87;;;9.50;99.90;;;;;;5048530;28;20243;-71
2021/11/14 03:58:19;;;;;;;14.53;8.63;;;9.50;99.90;;;;;;5048360;28;20224;-71
2021/11/14 04:00:49;;;;;;;12.13;7.63;;;9.50;99.90;;;;;;5047109;28;20636;-71
2021/11/14 04:03:17;;;;;;;11.17;7.07;;;9.60;99.90;;;;;;5048347;28;20238;-71
2021/11/14 04:05:45;;;;;;;11.03;6.80;;;9.50;99.90;;;;;;5048125;28;20197;-71
2021/11/14 04:08:15;;;;;;;9.90;6.53;;;9.60;99.90;;;;;;5061805;28;20785;-71
2021/11/14 04:10:44;;;;;;;11.83;8.00;;;9.60;99.90;;;;;;5041264;28;20247;-71
2021/11/14 04:13:11;;;;;;;13.60;8.40;;;9.60;99.90;;;;;;5049645;28;20674;-71
2021/11/14 04:15:38;;;;;;;13.03;7.77;;;9.60;99.90;;;;;;5046207;28;20221;-71
2021/11/14 04:18:06;;;;;;;12.17;7.80;;;9.60;99.90;;;;;;5047685;28;20224;-71
2021/11/14 04:20:35;;;;;;;13.93;9.07;;;9.60;99.90;;;;;;5046879;28;20583;-71
2021/11/14 04:23:05;;;;;;;12.83;7.93;;;9.60;99.90;;;;;;5047935;28;20298;-71
2021/11/14 04:25:32;;;;;;;12.10;7.50;;;9.60;99.90;;;;;;5055571;28;20210;-71
2021/11/14 04:27:59;;;;;;;8.83;6.00;;;9.60;99.90;;;;;;5044526;28;20662;-71
2021/11/14 04:30:28;;;;;;;10.37;6.50;;;9.60;99.90;;;;;;5047819;28;20516;-71
2021/11/14 04:32:55;;;;;;;10.67;6.73;;;9.70;99.90;;;;;;5049110;28;20703;-71
2021/11/14 04:35:23;;;;;;;8.47;5.97;;;9.70;99.90;;;;;;5054891;28;20212;-71
2021/11/14 04:37:51;;;;;;;8.97;6.03;;;9.70;99.90;;;;;;5041915;28;20199;-71
2021/11/14 04:40:22;;;;;;;8.97;6.10;;;9.70;99.90;;;;;;5046899;28;20207;-71
2021/11/14 04:42:49;;;;;;;9.67;6.17;;;9.70;99.90;;;;;;5053991;28;20205;-71
2021/11/14 04:45:17;;;;;;;11.70;6.27;;;9.70;99.90;;;;;;5047326;28;20195;-71
2021/11/14 04:47:44;;;;;;;7.20;5.60;;;9.70;99.90;;;;;;5047316;28;20319;-71
2021/11/14 04:50:14;;;;;;;9.20;6.23;;;9.70;99.90;;;;;;5047143;28;20694;-71
2021/11/14 04:52:41;;;;;;;8.30;5.83;;;9.70;99.90;;;;;;5049272;28;20202;-71
2021/11/14 04:55:09;;;;;;;10.77;5.87;;;9.70;99.90;;;;;;5046770;28;20240;-71
2021/11/14 04:57:37;;;;;;;8.47;5.73;;;9.70;99.90;;;;;;5055290;28;20299;-71
2021/11/14 05:00:09;;;;;;;11.57;7.47;;;9.70;99.90;;;;;;5046621;28;20226;-71
2021/11/14 05:02:36;;;;;;;21.53;11.23;;;9.60;99.90;;;;;;5043039;28;20197;-71
2021/11/14 05:05:04;;;;;;;21.33;12.10;;;9.70;99.90;;;;;;5046580;28;20252;-71
2021/11/14 05:07:31;;;;;;;28.00;15.83;;;9.70;99.90;;;;;;5046471;28;20194;-71
2021/11/14 05:09:58;;;;;;;20.90;12.40;;;9.70;99.90;;;;;;5056817;28;20205;-71
2021/11/14 05:12:25;;;;;;;19.73;11.67;;;9.70;99.90;;;;;;5045746;28;20193;-69
2021/11/14 05:14:53;;;;;;;17.07;10.30;;;9.70;99.90;;;;;;5062582;28;20661;-70
2021/11/14 05:17:20;;;;;;;14.23;8.80;;;9.70;99.90;;;;;;5046495;28;20614;-70
2021/11/14 05:19:47;;;;;;;12.47;8.00;;;9.70;99.90;;;;;;5047803;28;20292;-70
2021/11/14 05:22:14;;;;;;;10.97;7.50;;;9.70;99.90;;;;;;5056727;28;20214;-71
2021/11/14 05:24:41;;;;;;;11.50;7.33;;;9.70;99.90;;;;;;5043263;28;20208;-70
2021/11/14 05:27:08;;;;;;;9.07;6.00;;;9.70;99.90;;;;;;5037081;28;20204;-70
2021/11/14 05:29:35;;;;;;;9.57;6.07;;;9.80;99.90;;;;;;5059772;28;20203;-70
2021/11/14 05:32:04;;;;;;;11.00;6.70;;;9.80;99.90;;;;;;5046854;28;20202;-70
2021/11/14 05:34:31;;;;;;;9.20;6.33;;;9.80;99.90;;;;;;5036485;28;20225;-70
2021/11/14 05:36:58;;;;;;;9.80;6.67;;;9.80;99.90;;;;;;5044635;28;20204;-70
2021/11/14 05:39:25;;;;;;;7.80;5.47;;;9.80;99.90;;;;;;5044348;28;20239;-70
2021/11/14 05:41:52;;;;;;;8.80;6.00;;;9.80;99.90;;;;;;5047983;28;20200;-70
2021/11/14 05:44:19;;;;;;;8.93;5.90;;;9.80;99.90;;;;;;5045626;28;20243;-70
2021/11/14 05:46:46;;;;;;;9.23;6.40;;;9.90;99.90;;;;;;5045870;28;20199;-70
2021/11/14 05:49:15;;;;;;;8.17;5.60;;;9.90;99.90;;;;;;5045597;28;20218;-70
2021/11/14 05:51:42;;;;;;;8.23;5.47;;;9.90;99.90;;;;;;5043549;28;20568;-70
2021/11/14 05:54:10;;;;;;;11.20;6.40;;;9.90;99.90;;;;;;5046934;28;20570;-70
2021/11/14 05:56:37;;;;;;;9.17;6.30;;;9.90;99.90;;;;;;5045820;28;20243;-69
2021/11/14 05:59:11;;;;;;;10.27;6.30;;;9.90;99.90;;;;;;5047194;28;20242;-70
2021/11/14 06:01:42;;;;;;;13.73;8.57;;;9.90;99.90;;;;;;5047918;28;20208;-70
2021/11/14 06:04:17;;;;;;;13.57;8.20;;;9.90;99.90;;;;;;5045874;28;20211;-70
2021/11/14 06:06:45;;;;;;;13.80;8.47;;;9.90;99.90;;;;;;5047228;28;20203;-70
2021/11/14 06:09:12;;;;;;;12.30;7.87;;;9.90;99.90;;;;;;5051215;28;20189;-70
2021/11/14 06:11:40;;;;;;;9.93;6.40;;;9.90;99.90;;;;;;5050204;28;20317;-70
2021/11/14 06:14:07;;;;;;;11.83;7.47;;;9.90;99.90;;;;;;5049106;28;20258;-70
2021/11/14 06:16:34;;;;;;;18.67;11.27;;;9.90;99.90;;;;;;5049380;28;20215;-70
2021/11/14 06:19:01;;;;;;;17.43;9.57;;;9.90;99.90;;;;;;5049069;28;20220;-70
2021/11/14 06:21:28;;;;;;;13.57;8.43;;;9.80;99.90;;;;;;5049922;28;20307;-70
2021/11/14 06:23:57;;;;;;;18.33;10.27;;;9.90;99.90;;;;;;5059334;28;20206;-70
2021/11/14 06:26:25;;;;;;;18.23;11.17;;;9.80;99.90;;;;;;5044862;28;20772;-70
2021/11/14 06:28:52;;;;;;;18.87;11.73;;;9.80;99.90;;;;;;5050055;28;20641;-70
2021/11/14 06:31:19;;;;;;;19.33;11.63;;;9.70;99.90;;;;;;5051014;28;20715;-70
2021/11/14 06:33:47;;;;;;;15.97;9.63;;;9.70;99.90;;;;;;5048876;28;20205;-70
2021/11/14 06:36:14;;;;;;;22.23;11.33;;;9.70;99.90;;;;;;5051072;28;20287;-70
2021/11/14 06:38:41;;;;;;;13.83;8.47;;;9.70;99.90;;;;;;5049942;28;20271;-70
2021/11/14 06:41:09;;;;;;;14.40;8.23;;;9.60;99.90;;;;;;5046511;28;20294;-70
2021/11/14 06:43:36;;;;;;;11.57;7.13;;;9.70;99.90;;;;;;5045294;28;20566;-70
2021/11/14 06:46:04;;;;;;;11.70;7.00;;;9.70;99.90;;;;;;5048633;28;20192;-71
2021/11/14 06:48:32;;;;;;;8.70;6.20;;;9.70;99.90;;;;;;5049620;28;20194;-70
2021/11/14 06:50:59;;;;;;;11.13;6.77;;;9.80;99.90;;;;;;5050405;28;20196;-71
2021/11/14 06:53:26;;;;;;;15.40;9.33;;;9.80;99.90;;;;;;5051053;28;20199;-71
2021/11/14 06:55:53;;;;;;;14.70;8.33;;;9.80;99.90;;;;;;5048316;28;20234;-71
2021/11/14 06:58:22;;;;;;;20.67;11.80;;;9.80;99.90;;;;;;5049598;28;20202;-71
2021/11/14 07:00:50;;;;;;;21.10;11.33;;;9.80;99.90;;;;;;5050035;28;20229;-71
2021/11/14 07:03:18;;;;;;;20.90;12.23;;;9.80;99.90;;;;;;5049570;28;20557;-71
2021/11/14 07:05:45;;;;;;;18.57;10.93;;;9.80;99.90;;;;;;5049218;28;20207;-71
2021/11/14 07:08:12;;;;;;;16.20;10.13;;;9.80;99.90;;;;;;5048854;28;20219;-71
2021/11/14 07:10:39;;;;;;;20.27;10.83;;;9.80;99.90;;;;;;5057538;28;20212;-71
2021/11/14 07:13:06;;;;;;;15.20;8.87;;;9.80;99.90;;;;;;5049625;28;20666;-71
2021/11/14 07:15:35;;;;;;;9.10;6.60;;;9.80;99.90;;;;;;5036684;28;20229;-71
2021/11/14 07:18:02;;;;;;;9.60;6.27;;;9.80;99.90;;;;;;5052410;28;20940;-71
2021/11/14 07:20:29;;;;;;;18.70;10.57;;;9.90;99.90;;;;;;5037241;28;20274;-71
2021/11/14 07:22:56;;;;;;;19.53;11.20;;;9.90;99.90;;;;;;5050371;28;20595;-71
2021/11/14 07:25:23;;;;;;;24.17;13.37;;;9.90;99.90;;;;;;5049424;28;20196;-71
2021/11/14 07:27:53;;;;;;;20.77;11.13;;;9.90;99.90;;;;;;5049608;28;20203;-71
2021/11/14 07:30:21;;;;;;;21.90;12.60;;;9.90;99.90;;;;;;5048728;28;20209;-71
2021/11/14 07:32:51;;;;;;;22.77;11.93;;;9.90;99.90;;;;;;5048831;28;20211;-71
2021/11/14 07:35:19;;;;;;;19.40;11.43;;;9.90;99.90;;;;;;5048704;28;20215;-71
2021/11/14 07:37:47;;;;;;;15.77;9.90;;;9.90;99.90;;;;;;5049438;28;20278;-71
2021/11/14 07:40:16;;;;;;;19.07;10.83;;;9.90;99.90;;;;;;5049285;28;20226;-70
2021/11/14 07:42:44;;;;;;;25.40;14.10;;;9.90;99.90;;;;;;5049694;28;20230;-70
2021/11/14 07:45:13;;;;;;;24.37;13.87;;;9.90;99.90;;;;;;5047877;28;20201;-71
2021/11/14 07:47:40;;;;;;;26.80;14.13;;;9.90;99.90;;;;;;5049889;28;20204;-71
2021/11/14 07:50:11;;;;;;;25.30;13.57;;;9.90;99.90;;;;;;5047140;28;20204;-70
2021/11/14 07:52:39;;;;;;;25.53;14.33;;;9.90;99.90;;;;;;5049943;28;20189;-71
2021/11/14 07:55:08;;;;;;;18.73;11.83;;;9.90;99.90;;;;;;5041838;28;20228;-71
2021/11/14 07:57:35;;;;;;;21.23;11.67;;;9.90;99.90;;;;;;5048872;28;20230;-70
2021/11/14 08:00:02;;;;;;;23.47;13.23;;;9.90;99.90;;;;;;5047073;28;20232;-70
2021/11/14 08:02:33;;;;;;;28.80;15.77;;;9.90;99.90;;;;;;5043036;28;20204;-70
2021/11/14 08:05:00;;;;;;;27.20;15.13;;;9.90;99.90;;;;;;5042687;28;20279;-70
2021/11/14 08:07:28;;;;;;;24.00;13.80;;;9.90;99.90;;;;;;5041478;28;20198;-70
2021/11/14 08:09:55;;;;;;;22.50;11.83;;;9.90;99.90;;;;;;5043142;28;20195;-70
2021/11/14 08:12:23;;;;;;;20.97;11.87;;;9.90;99.90;;;;;;5049259;28;20196;-71
2021/11/14 08:14:50;;;;;;;20.57;11.77;;;9.90;99.90;;;;;;5048519;28;20196;-71
2021/11/14 08:17:17;;;;;;;21.33;11.57;;;10.00;99.90;;;;;;5049246;28;20198;-71
2021/11/14 08:19:44;;;;;;;22.43;12.80;;;10.00;99.90;;;;;;5046433;28;20239;-71
2021/11/14 08:22:11;;;;;;;21.70;11.67;;;10.00;99.90;;;;;;5057829;28;20218;-71
2021/11/14 08:24:40;;;;;;;23.20;12.70;;;10.00;99.90;;;;;;5044581;28;20196;-71
2021/11/14 08:27:07;;;;;;;24.60;14.17;;;10.00;99.90;;;;;;5056888;28;20216;-70
2021/11/14 08:29:34;;;;;;;28.47;15.57;;;10.00;99.90;;;;;;5043114;28;20205;-71
2021/11/14 08:32:01;;;;;;;24.07;13.90;;;10.00;99.90;;;;;;5047570;28;20202;-71
2021/11/14 08:34:28;;;;;;;27.20;14.23;;;10.00;99.90;;;;;;5048192;28;20640;-72
2021/11/14 08:36:56;;;;;;;26.23;13.93;;;10.00;99.90;;;;;;5047652;28;20569;-71
2021/11/14 08:39:23;;;;;;;24.70;12.80;;;10.00;99.90;;;;;;5045104;28;20199;-70
2021/11/14 08:41:51;;;;;;;23.93;13.53;;;10.00;99.90;;;;;;5048033;28;20592;-71
2021/11/14 08:44:18;;;;;;;25.30;13.50;;;10.00;99.90;;;;;;5046330;28;20225;-71
2021/11/14 08:46:45;;;;;;;29.60;14.83;;;10.00;99.90;;;;;;5048563;28;20753;-70
2021/11/14 08:49:12;;;;;;;23.63;13.67;;;10.10;99.90;;;;;;5047392;28;20209;-70
2021/11/14 08:51:39;;;;;;;24.30;14.17;;;10.10;99.90;;;;;;5046801;28;20204;-70
2021/11/14 08:54:06;;;;;;;21.87;12.43;;;10.10;99.90;;;;;;5047419;28;20538;-71
2021/11/14 08:56:34;;;;;;;22.93;13.03;;;10.10;99.90;;;;;;5046463;28;20233;-70
2021/11/14 08:59:03;;;;;;;24.63;13.53;;;10.10;99.90;;;;;;5045889;28;20208;-70
2021/11/14 09:01:31;;;;;;;22.20;12.83;;;10.10;99.90;;;;;;5046557;28;20316;-71
2021/11/14 09:03:58;;;;;;;21.33;11.70;;;10.10;99.90;;;;;;5044739;28;20205;-71
2021/11/14 09:06:26;;;;;;;25.30;13.60;;;10.10;99.90;;;;;;5048621;28;20568;-70
2021/11/14 09:08:54;;;;;;;20.43;12.03;;;10.00;99.90;;;;;;5046886;28;20734;-71
2021/11/14 09:11:21;;;;;;;24.20;12.17;;;10.10;99.90;;;;;;5048083;28;20261;-71
2021/11/14 09:13:48;;;;;;;23.07;12.43;;;10.10;99.90;;;;;;5047779;28;20203;-71
2021/11/14 09:16:17;;;;;;;27.80;15.40;;;10.20;99.90;;;;;;5051884;28;20710;-71
2021/11/14 09:18:45;;;;;;;23.13;13.37;;;10.20;99.90;;;;;;5046935;28;20198;-70
2021/11/14 09:21:12;;;;;;;19.83;11.57;;;10.10;99.90;;;;;;5048247;28;20687;-71
2021/11/14 09:23:39;;;;;;;17.60;10.60;;;10.20;99.90;;;;;;5047328;28;20213;-71
2021/11/14 09:26:08;;;;;;;23.73;12.77;;;10.20;99.90;;;;;;5046942;28;20199;-70
2021/11/14 09:28:35;;;;;;;22.80;12.33;;;10.30;99.90;;;;;;5047459;28;20270;-71
2021/11/14 09:31:02;;;;;;;22.13;12.50;;;10.30;99.90;;;;;;5048230;28;20224;-71
2021/11/14 09:33:33;;;;;;;23.67;12.67;;;10.30;99.90;;;;;;5047926;28;20207;-70
2021/11/14 09:36:00;;;;;;;26.27;14.37;;;10.30;99.90;;;;;;5048252;28;20604;-71
2021/11/14 09:38:28;;;;;;;25.47;13.27;;;10.20;99.90;;;;;;5046017;28;20641;-71
2021/11/14 09:40:56;;;;;;;28.27;14.93;;;10.30;99.90;;;;;;5047063;28;20217;-71
2021/11/14 09:43:23;;;;;;;26.47;14.23;;;10.20;99.90;;;;;;5049623;28;20210;-71
2021/11/14 09:45:52;;;;;;;26.63;13.67;;;10.20;99.90;;;;;;5051249;28;20305;-71
2021/11/14 09:48:20;;;;;;;23.07;12.23;;;10.20;99.90;;;;;;5046450;28;20653;-70
2021/11/14 09:50:50;;;;;;;26.07;12.73;;;10.20;99.90;;;;;;5042187;28;20191;-70
2021/11/14 09:53:17;;;;;;;25.43;13.47;;;10.20;99.90;;;;;;5042930;28;20199;-70
2021/11/14 09:55:44;;;;;;;24.10;12.70;;;10.30;99.90;;;;;;5047204;28;20225;-71
2021/11/14 09:58:11;;;;;;;24.43;12.60;;;10.30;99.90;;;;;;5048403;28;20703;-70
2021/11/14 10:00:41;;;;;;;23.13;11.97;;;10.30;99.90;;;;;;5035604;28;20242;-70
2021/11/14 10:03:09;;;;;;;15.77;9.83;;;10.30;99.90;;;;;;5039381;28;20230;-70
2021/11/14 10:05:37;;;;;;;21.00;11.80;;;10.40;99.90;;;;;;5028481;28;20211;-71
2021/11/14 10:08:09;;;;;;;23.50;12.40;;;10.40;99.90;;;;;;5046937;28;20300;-71
2021/11/14 10:10:40;;;;;;;22.77;12.33;;;10.40;99.90;;;;;;5043324;28;20555;-71
2021/11/14 10:13:13;;;;;;;24.20;14.07;;;10.40;99.90;;;;;;5047104;28;20199;-71
2021/11/14 10:15:41;;;;;;;26.30;13.17;;;10.40;99.90;;;;;;5062547;28;20233;-71
2021/11/14 10:18:08;;;;;;;22.77;12.27;;;10.40;99.90;;;;;;5047053;28;20229;-71
2021/11/14 10:20:36;;;;;;;21.53;11.93;;;10.40;99.90;;;;;;5046265;28;20312;-71
2021/11/14 10:23:07;;;;;;;21.33;11.03;;;10.40;99.90;;;;;;5045875;28;20204;-71
2021/11/14 10:25:35;;;;;;;21.80;11.37;;;10.40;99.90;;;;;;5043420;28;20216;-71
2021/11/14 10:28:05;;;;;;;20.47;11.30;;;10.40;99.90;;;;;;5046723;28;20230;-71
2021/11/14 10:30:34;;;;;;;23.23;12.97;;;10.40;99.90;;;;;;5046469;28;20302;-71
2021/11/14 10:33:03;;;;;;;22.13;12.10;;;10.50;99.90;;;;;;5046118;28;20305;-71
2021/11/14 10:35:31;;;;;;;21.87;12.90;;;10.40;99.90;;;;;;5047462;28;20185;-70
2021/11/14 10:38:00;;;;;;;24.10;12.80;;;10.40;99.90;;;;;;5047297;28;20347;-70
2021/11/14 10:40:33;;;;;;;21.63;12.30;;;10.40;99.90;;;;;;5047420;28;20236;-70
2021/11/14 10:43:02;;;;;;;23.17;13.13;;;10.40;99.90;;;;;;5045196;28;20307;-70
2021/11/14 10:45:34;;;;;;;18.53;11.20;;;10.40;99.90;;;;;;5042511;28;20204;-70
2021/11/14 10:48:04;;;;;;;25.13;13.33;;;10.30;99.90;;;;;;5046628;28;20199;-71
2021/11/14 10:50:35;;;;;;;25.30;14.33;;;10.30;99.90;;;;;;5043642;28;20209;-71
2021/11/14 10:53:04;;;;;;;21.70;12.73;;;10.30;99.90;;;;;;5051624;28;21355;-71
2021/11/14 10:55:39;;;;;;;23.90;13.47;;;10.30;99.90;;;;;;5057668;28;20696;-71
2021/11/14 10:58:07;;;;;;;20.87;11.93;;;10.30;99.90;;;;;;5043344;28;21100;-70
2021/11/14 11:00:36;;;;;;;24.80;13.40;;;10.30;99.90;;;;;;5024356;28;20297;-71
2021/11/14 11:03:03;;;;;;;26.17;13.13;;;10.30;99.90;;;;;;5041122;28;20240;-70
2021/11/14 11:05:31;;;;;;;17.97;11.33;;;10.40;99.90;;;;;;5039881;28;20525;-71
2021/11/14 11:08:00;;;;;;;21.90;12.43;;;10.40;99.90;;;;;;5038975;28;20474;-71
2021/11/14 11:10:31;;;;;;;23.33;12.37;;;10.40;99.90;;;;;;5039462;28;20187;-70
2021/11/14 11:13:00;;;;;;;19.50;10.97;;;10.50;99.90;;;;;;5038569;28;20293;-70
2021/11/14 11:15:29;;;;;;;16.90;9.97;;;10.50;99.90;;;;;;5056496;28;20209;-71
2021/11/14 11:17:56;;;;;;;21.73;10.93;;;10.60;99.90;;;;;;5040347;28;20192;-73
2021/11/14 11:20:29;;;;;;;19.63;11.27;;;10.60;99.90;;;;;;5040758;28;20264;-72
2021/11/14 11:22:58;;;;;;;18.10;10.27;;;10.70;99.90;;;;;;5043814;28;20193;-72
2021/11/14 11:25:35;;;;;;;25.23;12.90;;;10.70;99.90;;;;;;5037770;28;20611;-73
2021/11/14 11:28:05;;;;;;;21.47;11.97;;;10.80;99.90;;;;;;5046833;28;20306;-72
2021/11/14 11:30:35;;;;;;;27.60;13.83;;;10.80;99.90;;;;;;5043377;28;20651;-73
2021/11/14 11:33:03;;;;;;;22.67;12.00;;;10.70;99.90;;;;;;5046878;28;20208;-72
2021/11/14 11:35:32;;;;;;;27.00;14.00;;;10.70;99.90;;;;;;5045813;28;20225;-72
2021/11/14 11:37:59;;;;;;;26.53;14.57;;;10.70;99.90;;;;;;5047641;28;20217;-72
2021/11/14 11:40:27;;;;;;;25.57;14.00;;;10.70;99.90;;;;;;5045505;28;20324;-71
2021/11/14 11:42:55;;;;;;;26.63;14.40;;;10.60;99.90;;;;;;5045394;28;20212;-72
2021/11/14 11:45:29;;;;;;;26.57;13.57;;;10.60;99.90;;;;;;5046459;28;20223;-72
2021/11/14 11:47:58;;;;;;;26.70;13.23;;;10.60;99.90;;;;;;5043508;28;20680;-72
2021/11/14 11:50:28;;;;;;;24.53;13.47;;;10.60;99.90;;;;;;5047201;28;20221;-72
2021/11/14 11:52:55;;;;;;;21.80;12.67;;;10.60;99.90;;;;;;5045548;28;20225;-72
2021/11/14 11:55:24;;;;;;;22.47;11.97;;;10.60;99.90;;;;;;5044602;28;20326;-72
2021/11/14 11:57:54;;;;;;;30.50;15.27;;;10.60;99.90;;;;;;5047139;28;20232;-72
2021/11/14 12:00:23;;;;;;;29.00;15.17;;;10.60;99.90;;;;;;5042686;28;20208;-72
2021/11/14 12:02:52;;;;;;;27.50;13.93;;;10.50;99.90;;;;;;5047462;28;20192;-72
2021/11/14 12:05:20;;;;;;;27.47;14.57;;;10.50;99.90;;;;;;5044389;28;20646;-72
2021/11/14 12:07:50;;;;;;;26.73;13.77;;;10.50;99.90;;;;;;5046169;28;20198;-72
2021/11/14 12:10:21;;;;;;;29.90;14.77;;;10.50;99.90;;;;;;5046476;28;20193;-72
2021/11/14 12:12:52;;;;;;;32.67;14.77;;;10.50;99.90;;;;;;5044938;28;20231;-72
2021/11/14 12:15:22;;;;;;;21.87;12.90;;;10.40;99.90;;;;;;5046110;28;20896;-71
2021/11/14 12:17:57;;;;;;;23.30;13.40;;;10.40;99.90;;;;;;5046442;28;20204;-71
2021/11/14 12:20:28;;;;;;;29.23;14.67;;;10.40;99.90;;;;;;5045099;28;20266;-72
2021/11/14 12:22:57;;;;;;;22.17;12.17;;;10.30;99.90;;;;;;5045496;28;20195;-72
2021/11/14 12:25:28;;;;;;;26.13;14.00;;;10.40;99.90;;;;;;5045307;28;20197;-72
2021/11/14 12:28:08;;;;;;;29.70;15.60;;;10.50;99.90;;;;;;5045127;28;20261;-71
2021/11/14 12:30:37;;;;;;;26.43;13.60;;;10.40;99.90;;;;;;5043723;28;20208;-71
2021/11/14 12:33:07;;;;;;;19.83;11.87;;;10.50;99.90;;;;;;5046483;28;20480;-71
2021/11/14 12:35:45;;;;;;;23.27;13.93;;;10.50;99.90;;;;;;5044469;28;20567;-71
2021/11/14 12:38:15;;;;;;;29.17;14.97;;;10.50;99.90;;;;;;5047703;28;20284;-71
2021/11/14 12:40:45;;;;;;;22.00;12.67;;;10.50;99.90;;;;;;5041778;28;20201;-72
2021/11/14 12:43:17;;;;;;;23.30;12.53;;;10.50;99.90;;;;;;5047133;28;20199;-71